This is the latest recevied weather packets stored in our database for station/object EA5CEE. If no packets are shown the sender has not sent any weather packets the latest 10 day(s).
| Time | Temp. | Humidity | Pressure | Rain* | Wind** | Luminosity | Snow |
|---|---|---|---|---|---|---|---|
| 1777987834 | 21.11° C | 58% | 1009.5 hPa | 0 mm | - | - | - |
| 1777986930 | 21.67° C | 52% | 1009.6 hPa | 0 mm | - | - | - |
| 1777986028 | 21.11° C | 54% | 1009.7 hPa | 0 mm | - | - | - |
| 1777985127 | 21.11° C | 58% | 1009.8 hPa | 0 mm | - | - | - |
| 1777984226 | 21.11° C | 60% | 1009.9 hPa | 0 mm | - | - | - |
| 1777983325 | 21.67° C | 62% | 1009.9 hPa | 0 mm | - | - | - |
| 1777982427 | 21.67° C | 62% | 1010 hPa | 0 mm | - | - | - |
| 1777981523 | 21.67° C | 60% | 1010.2 hPa | 0 mm | - | - | - |
| 1777980631 | 21.11° C | 62% | 1010.4 hPa | 0 mm | - | - | - |
| 1777979736 | 20.56° C | 71% | 1010.6 hPa | 0 mm | - | - | - |
| 1777978822 | 20.56° C | 73% | 1010.6 hPa | 0 mm | - | - | - |
| 1777977914 | 21.11° C | 70% | 1010.7 hPa | 0 mm | - | - | - |
| 1777977026 | 21.11° C | 68% | 1010.7 hPa | 0 mm | - | - | - |
| 1777976121 | 20° C | 76% | 1010.7 hPa | 0 mm | - | - | - |
| 1777975209 | 20° C | 77% | 1010.7 hPa | 0 mm | - | - | - |
| 1777974308 | 20° C | 76% | 1010.8 hPa | 0 mm | - | - | - |
| 1777973406 | 20.56° C | 74% | 1010.8 hPa | 0 mm | - | - | - |
| 1777972506 | 20.56° C | 73% | 1010.8 hPa | 0 mm | - | - | - |
| 1777971605 | 20° C | 77% | 1010.8 hPa | 0 mm | - | - | - |
| 1777970708 | 20.56° C | 76% | 1010.9 hPa | 0 mm | - | - | - |
| 1777969803 | 20° C | 76% | 1010.9 hPa | 0 mm | - | - | - |
| 1777968901 | 20.56° C | 74% | 1010.9 hPa | 0 mm | - | - | - |
| 1777968061 | 20.56° C | 60% | 1010.8 hPa | 0 mm | - | - | - |
| 1777967157 | 19.44° C | 62% | 1010.8 hPa | 0 mm | - | - | - |
| 1777966257 | 19.44° C | 55% | 1010.7 hPa | 0 mm | - | - | - |
* Rain latest hour (hover to see other rain measurements)
** Current wind speed in m/s (hover to see current wind gust speed)